sensor_id;sensor_type;location;lat;lon;timestamp;temperature;humidity
52765;DHT22;38650;44.536;18.664;2023-09-19T00:00:13;25.10;86.40
52765;DHT22;38650;44.536;18.664;2023-09-19T00:02:38;24.90;87.30
52765;DHT22;38650;44.536;18.664;2023-09-19T00:05:04;24.90;87.90
52765;DHT22;38650;44.536;18.664;2023-09-19T00:07:30;25.00;87.40
52765;DHT22;38650;44.536;18.664;2023-09-19T00:09:56;25.00;86.30
52765;DHT22;38650;44.536;18.664;2023-09-19T00:12:22;25.10;86.70
52765;DHT22;38650;44.536;18.664;2023-09-19T00:14:47;25.00;86.10
52765;DHT22;38650;44.536;18.664;2023-09-19T00:17:13;25.00;84.80
52765;DHT22;38650;44.536;18.664;2023-09-19T00:19:38;25.00;84.60
52765;DHT22;38650;44.536;18.664;2023-09-19T00:22:04;25.00;84.10
52765;DHT22;38650;44.536;18.664;2023-09-19T00:24:30;25.00;83.90
52765;DHT22;38650;44.536;18.664;2023-09-19T00:26:56;25.00;84.00
52765;DHT22;38650;44.536;18.664;2023-09-19T00:29:24;25.00;83.90
52765;DHT22;38650;44.536;18.664;2023-09-19T00:31:50;25.00;84.50
52765;DHT22;38650;44.536;18.664;2023-09-19T00:34:16;25.00;84.40
52765;DHT22;38650;44.536;18.664;2023-09-19T00:36:42;24.90;85.50
52765;DHT22;38650;44.536;18.664;2023-09-19T00:39:08;25.00;86.30
52765;DHT22;38650;44.536;18.664;2023-09-19T00:41:34;24.90;85.50
52765;DHT22;38650;44.536;18.664;2023-09-19T00:44:01;24.90;85.70
52765;DHT22;38650;44.536;18.664;2023-09-19T00:46:27;24.90;85.50
52765;DHT22;38650;44.536;18.664;2023-09-19T00:48:53;24.90;86.40
52765;DHT22;38650;44.536;18.664;2023-09-19T00:51:19;24.80;87.70
52765;DHT22;38650;44.536;18.664;2023-09-19T00:53:46;24.60;88.40
52765;DHT22;38650;44.536;18.664;2023-09-19T00:56:12;24.70;88.60
52765;DHT22;38650;44.536;18.664;2023-09-19T00:58:38;24.70;88.20
52765;DHT22;38650;44.536;18.664;2023-09-19T01:01:03;24.60;88.90
52765;DHT22;38650;44.536;18.664;2023-09-19T01:03:32;24.50;89.80
52765;DHT22;38650;44.536;18.664;2023-09-19T01:06:02;24.60;88.30
52765;DHT22;38650;44.536;18.664;2023-09-19T01:08:27;24.60;88.70
52765;DHT22;38650;44.536;18.664;2023-09-19T01:11:06;24.70;88.70
52765;DHT22;38650;44.536;18.664;2023-09-19T01:16:34;24.70;88.60
52765;DHT22;38650;44.536;18.664;2023-09-19T01:22:32;24.70;88.70
52765;DHT22;38650;44.536;18.664;2023-09-19T01:29:48;24.70;89.10
52765;DHT22;38650;44.536;18.664;2023-09-19T01:32:18;24.70;89.10
52765;DHT22;38650;44.536;18.664;2023-09-19T01:37:17;24.60;90.30
52765;DHT22;38650;44.536;18.664;2023-09-19T01:39:48;24.70;90.30
52765;DHT22;38650;44.536;18.664;2023-09-19T01:47:34;24.60;91.00
52765;DHT22;38650;44.536;18.664;2023-09-19T01:52:36;24.60;91.40
52765;DHT22;38650;44.536;18.664;2023-09-19T01:55:08;24.60;91.60
52765;DHT22;38650;44.536;18.664;2023-09-19T01:57:35;24.50;91.80
52765;DHT22;38650;44.536;18.664;2023-09-19T02:00:06;24.50;92.30
52765;DHT22;38650;44.536;18.664;2023-09-19T02:02:38;24.40;92.50
52765;DHT22;38650;44.536;18.664;2023-09-19T02:05:04;24.40;92.90
52765;DHT22;38650;44.536;18.664;2023-09-19T02:07:30;24.40;92.70
52765;DHT22;38650;44.536;18.664;2023-09-19T02:09:59;24.40;92.90
52765;DHT22;38650;44.536;18.664;2023-09-19T02:12:31;24.40;92.60
52765;DHT22;38650;44.536;18.664;2023-09-19T02:14:58;24.40;92.70
52765;DHT22;38650;44.536;18.664;2023-09-19T02:17:24;24.40;93.30
52765;DHT22;38650;44.536;18.664;2023-09-19T02:19:52;24.40;92.90
52765;DHT22;38650;44.536;18.664;2023-09-19T02:22:17;24.40;92.80
52765;DHT22;38650;44.536;18.664;2023-09-19T02:24:43;24.40;92.90
52765;DHT22;38650;44.536;18.664;2023-09-19T02:27:08;24.40;93.20
52765;DHT22;38650;44.536;18.664;2023-09-19T02:29:34;24.40;93.70
52765;DHT22;38650;44.536;18.664;2023-09-19T02:32:00;24.20;93.40
52765;DHT22;38650;44.536;18.664;2023-09-19T02:34:28;24.20;94.20
52765;DHT22;38650;44.536;18.664;2023-09-19T02:36:53;24.20;94.70
52765;DHT22;38650;44.536;18.664;2023-09-19T02:39:21;24.00;95.10
52765;DHT22;38650;44.536;18.664;2023-09-19T02:41:46;24.00;95.60
52765;DHT22;38650;44.536;18.664;2023-09-19T02:44:12;24.00;95.80
52765;DHT22;38650;44.536;18.664;2023-09-19T02:46:37;24.00;95.70
52765;DHT22;38650;44.536;18.664;2023-09-19T02:49:03;24.00;96.10
52765;DHT22;38650;44.536;18.664;2023-09-19T02:51:32;23.90;95.80
52765;DHT22;38650;44.536;18.664;2023-09-19T02:54:00;23.90;96.30
52765;DHT22;38650;44.536;18.664;2023-09-19T02:56:28;23.90;96.70
52765;DHT22;38650;44.536;18.664;2023-09-19T02:58:55;23.70;97.30
52765;DHT22;38650;44.536;18.664;2023-09-19T03:01:21;23.70;97.20
52765;DHT22;38650;44.536;18.664;2023-09-19T03:03:46;23.70;96.90
52765;DHT22;38650;44.536;18.664;2023-09-19T03:06:12;23.70;97.10
52765;DHT22;38650;44.536;18.664;2023-09-19T03:08:38;23.70;97.40
52765;DHT22;38650;44.536;18.664;2023-09-19T03:11:07;23.70;97.00
52765;DHT22;38650;44.536;18.664;2023-09-19T03:13:36;23.70;96.80
52765;DHT22;38650;44.536;18.664;2023-09-19T03:16:05;23.70;97.00
52765;DHT22;38650;44.536;18.664;2023-09-19T03:18:34;23.70;96.90
52765;DHT22;38650;44.536;18.664;2023-09-19T03:21:00;23.70;97.00
52765;DHT22;38650;44.536;18.664;2023-09-19T03:23:26;23.70;97.40
52765;DHT22;38650;44.536;18.664;2023-09-19T03:25:53;23.50;97.80
52765;DHT22;38650;44.536;18.664;2023-09-19T03:28:19;23.50;97.80
52765;DHT22;38650;44.536;18.664;2023-09-19T03:30:46;23.50;98.10
52765;DHT22;38650;44.536;18.664;2023-09-19T03:33:12;23.40;98.20
52765;DHT22;38650;44.536;18.664;2023-09-19T03:35:38;23.40;98.50
52765;DHT22;38650;44.536;18.664;2023-09-19T03:38:05;23.30;98.10
52765;DHT22;38650;44.536;18.664;2023-09-19T03:40:30;23.40;97.70
52765;DHT22;38650;44.536;18.664;2023-09-19T03:42:56;23.40;98.00
52765;DHT22;38650;44.536;18.664;2023-09-19T03:45:21;23.20;98.80
52765;DHT22;38650;44.536;18.664;2023-09-19T03:47:47;23.20;99.00
52765;DHT22;38650;44.536;18.664;2023-09-19T03:50:13;23.10;99.60
52765;DHT22;38650;44.536;18.664;2023-09-19T03:52:43;22.90;99.90
52765;DHT22;38650;44.536;18.664;2023-09-19T03:55:08;22.90;99.90
52765;DHT22;38650;44.536;18.664;2023-09-19T03:57:35;22.80;99.90
52765;DHT22;38650;44.536;18.664;2023-09-19T04:00:01;22.80;99.90
52765;DHT22;38650;44.536;18.664;2023-09-19T04:02:27;22.80;99.90
52765;DHT22;38650;44.536;18.664;2023-09-19T04:04:58;22.80;99.90
52765;DHT22;38650;44.536;18.664;2023-09-19T04:07:24;22.80;99.90
52765;DHT22;38650;44.536;18.664;2023-09-19T04:09:51;22.60;99.90
52765;DHT22;38650;44.536;18.664;2023-09-19T04:12:18;22.60;99.90
52765;DHT22;38650;44.536;18.664;2023-09-19T04:14:44;22.50;99.90
52765;DHT22;38650;44.536;18.664;2023-09-19T04:17:10;22.50;99.90
52765;DHT22;38650;44.536;18.664;2023-09-19T04:19:36;22.50;99.90
52765;DHT22;38650;44.536;18.664;2023-09-19T04:22:02;22.50;99.90
52765;DHT22;38650;44.536;18.664;2023-09-19T04:24:28;22.50;99.90
52765;DHT22;38650;44.536;18.664;2023-09-19T04:26:53;22.60;99.90
52765;DHT22;38650;44.536;18.664;2023-09-19T04:29:19;22.60;99.90
52765;DHT22;38650;44.536;18.664;2023-09-19T04:31:45;22.60;99.90
52765;DHT22;38650;44.536;18.664;2023-09-19T04:34:11;22.70;99.90
52765;DHT22;38650;44.536;18.664;2023-09-19T04:36:42;22.70;99.90
52765;DHT22;38650;44.536;18.664;2023-09-19T04:39:08;22.70;99.90
52765;DHT22;38650;44.536;18.664;2023-09-19T04:41:36;22.60;99.90
52765;DHT22;38650;44.536;18.664;2023-09-19T04:44:04;22.60;99.90
52765;DHT22;38650;44.536;18.664;2023-09-19T04:46:30;22.60;99.90
52765;DHT22;38650;44.536;18.664;2023-09-19T04:48:55;22.70;99.90
52765;DHT22;38650;44.536;18.664;2023-09-19T04:51:21;22.70;99.90
52765;DHT22;38650;44.536;18.664;2023-09-19T04:53:46;22.70;99.90
52765;DHT22;38650;44.536;18.664;2023-09-19T04:56:13;22.70;99.90
52765;DHT22;38650;44.536;18.664;2023-09-19T04:58:38;22.70;99.90
52765;DHT22;38650;44.536;18.664;2023-09-19T05:01:04;22.80;99.90
52765;DHT22;38650;44.536;18.664;2023-09-19T05:03:30;22.80;99.90
52765;DHT22;38650;44.536;18.664;2023-09-19T05:05:56;22.80;99.90
52765;DHT22;38650;44.536;18.664;2023-09-19T05:08:21;22.90;99.90
52765;DHT22;38650;44.536;18.664;2023-09-19T05:10:47;22.90;99.90
52765;DHT22;38650;44.536;18.664;2023-09-19T05:13:14;22.90;99.90
52765;DHT22;38650;44.536;18.664;2023-09-19T05:15:40;23.00;99.80
52765;DHT22;38650;44.536;18.664;2023-09-19T05:18:05;23.10;99.50
52765;DHT22;38650;44.536;18.664;2023-09-19T05:20:31;23.10;99.40
52765;DHT22;38650;44.536;18.664;2023-09-19T05:23:02;23.10;98.00
52765;DHT22;38650;44.536;18.664;2023-09-19T05:25:31;23.10;98.10
52765;DHT22;38650;44.536;18.664;2023-09-19T05:27:57;23.10;98.10
52765;DHT22;38650;44.536;18.664;2023-09-19T05:30:24;23.20;97.90
52765;DHT22;38650;44.536;18.664;2023-09-19T05:32:50;23.30;97.90
52765;DHT22;38650;44.536;18.664;2023-09-19T05:35:16;23.40;97.80
52765;DHT22;38650;44.536;18.664;2023-09-19T05:37:42;23.40;97.60
52765;DHT22;38650;44.536;18.664;2023-09-19T05:40:07;23.40;97.30
52765;DHT22;38650;44.536;18.664;2023-09-19T05:42:37;23.50;97.30
52765;DHT22;38650;44.536;18.664;2023-09-19T05:45:05;23.60;96.50
52765;DHT22;38650;44.536;18.664;2023-09-19T05:47:32;23.80;95.90
52765;DHT22;38650;44.536;18.664;2023-09-19T05:49:57;23.90;95.50
52765;DHT22;38650;44.536;18.664;2023-09-19T05:52:23;24.00;95.10
52765;DHT22;38650;44.536;18.664;2023-09-19T05:54:48;24.10;95.20
52765;DHT22;38650;44.536;18.664;2023-09-19T05:57:15;24.20;94.50
52765;DHT22;38650;44.536;18.664;2023-09-19T05:59:40;24.40;93.60
52765;DHT22;38650;44.536;18.664;2023-09-19T06:02:08;24.60;93.40
52765;DHT22;38650;44.536;18.664;2023-09-19T06:04:35;26.00;90.40
52765;DHT22;38650;44.536;18.664;2023-09-19T06:07:00;27.80;79.70
52765;DHT22;38650;44.536;18.664;2023-09-19T06:09:26;29.20;71.70
52765;DHT22;38650;44.536;18.664;2023-09-19T06:11:53;30.50;64.90
52765;DHT22;38650;44.536;18.664;2023-09-19T06:14:20;31.50;59.20
52765;DHT22;38650;44.536;18.664;2023-09-19T06:16:46;32.40;56.10
52765;DHT22;38650;44.536;18.664;2023-09-19T06:19:14;33.00;53.50
52765;DHT22;38650;44.536;18.664;2023-09-19T06:21:40;33.50;52.60
52765;DHT22;38650;44.536;18.664;2023-09-19T06:24:05;34.00;50.60
52765;DHT22;38650;44.536;18.664;2023-09-19T06:26:31;34.60;50.30
52765;DHT22;38650;44.536;18.664;2023-09-19T06:28:57;35.20;47.90
52765;DHT22;38650;44.536;18.664;2023-09-19T06:31:25;35.90;47.00
52765;DHT22;38650;44.536;18.664;2023-09-19T06:33:51;36.50;45.50
52765;DHT22;38650;44.536;18.664;2023-09-19T06:36:17;36.90;44.00
52765;DHT22;38650;44.536;18.664;2023-09-19T06:38:43;37.20;43.50
52765;DHT22;38650;44.536;18.664;2023-09-19T06:41:09;37.50;42.70
52765;DHT22;38650;44.536;18.664;2023-09-19T06:43:34;37.90;41.20
52765;DHT22;38650;44.536;18.664;2023-09-19T06:46:00;37.90;41.40
52765;DHT22;38650;44.536;18.664;2023-09-19T06:48:26;38.30;40.60
52765;DHT22;38650;44.536;18.664;2023-09-19T06:50:58;38.90;40.30
52765;DHT22;38650;44.536;18.664;2023-09-19T06:53:30;39.30;39.40
52765;DHT22;38650;44.536;18.664;2023-09-19T06:55:57;39.60;39.80
52765;DHT22;38650;44.536;18.664;2023-09-19T06:58:23;39.60;38.60
52765;DHT22;38650;44.536;18.664;2023-09-19T07:00:48;39.70;37.60
52765;DHT22;38650;44.536;18.664;2023-09-19T07:03:15;39.30;37.80
52765;DHT22;38650;44.536;18.664;2023-09-19T07:05:44;39.30;37.50
52765;DHT22;38650;44.536;18.664;2023-09-19T07:08:09;39.30;38.10
52765;DHT22;38650;44.536;18.664;2023-09-19T07:10:38;39.20;38.80
52765;DHT22;38650;44.536;18.664;2023-09-19T07:13:05;38.40;38.30
52765;DHT22;38650;44.536;18.664;2023-09-19T07:15:36;37.90;39.00
52765;DHT22;38650;44.536;18.664;2023-09-19T07:18:04;37.50;39.90
52765;DHT22;38650;44.536;18.664;2023-09-19T07:20:31;37.20;39.70
52765;DHT22;38650;44.536;18.664;2023-09-19T07:22:58;37.40;39.20
52765;DHT22;38650;44.536;18.664;2023-09-19T07:25:28;37.70;40.60
52765;DHT22;38650;44.536;18.664;2023-09-19T07:27:58;38.10;40.00
52765;DHT22;38650;44.536;18.664;2023-09-19T07:30:28;38.50;38.90
52765;DHT22;38650;44.536;18.664;2023-09-19T07:32:59;38.80;39.00
52765;DHT22;38650;44.536;18.664;2023-09-19T07:35:27;39.20;37.70
52765;DHT22;38650;44.536;18.664;2023-09-19T07:37:53;39.50;38.00
52765;DHT22;38650;44.536;18.664;2023-09-19T07:40:24;39.90;36.40
52765;DHT22;38650;44.536;18.664;2023-09-19T07:42:52;39.70;36.80
52765;DHT22;38650;44.536;18.664;2023-09-19T07:45:19;39.60;38.10
52765;DHT22;38650;44.536;18.664;2023-09-19T07:47:48;40.10;37.10
52765;DHT22;38650;44.536;18.664;2023-09-19T07:50:17;40.70;36.10
52765;DHT22;38650;44.536;18.664;2023-09-19T07:52:47;40.90;35.50
52765;DHT22;38650;44.536;18.664;2023-09-19T07:55:12;40.40;35.70
52765;DHT22;38650;44.536;18.664;2023-09-19T07:57:41;40.30;36.70
52765;DHT22;38650;44.536;18.664;2023-09-19T08:00:07;40.70;36.60
52765;DHT22;38650;44.536;18.664;2023-09-19T08:02:37;41.00;35.80
52765;DHT22;38650;44.536;18.664;2023-09-19T08:05:06;40.80;35.20
52765;DHT22;38650;44.536;18.664;2023-09-19T08:07:32;40.30;36.80
52765;DHT22;38650;44.536;18.664;2023-09-19T08:09:58;40.30;36.40
52765;DHT22;38650;44.536;18.664;2023-09-19T08:12:24;40.70;35.50
52765;DHT22;38650;44.536;18.664;2023-09-19T08:14:52;41.40;35.40
52765;DHT22;38650;44.536;18.664;2023-09-19T08:17:21;41.90;35.00
52765;DHT22;38650;44.536;18.664;2023-09-19T08:19:48;42.20;33.90
52765;DHT22;38650;44.536;18.664;2023-09-19T08:22:14;42.30;34.00
52765;DHT22;38650;44.536;18.664;2023-09-19T08:24:43;42.40;33.60
52765;DHT22;38650;44.536;18.664;2023-09-19T08:27:09;42.90;33.20
52765;DHT22;38650;44.536;18.664;2023-09-19T08:29:35;42.80;31.40
52765;DHT22;38650;44.536;18.664;2023-09-19T08:32:02;42.00;33.00
52765;DHT22;38650;44.536;18.664;2023-09-19T08:34:31;41.90;33.50
52765;DHT22;38650;44.536;18.664;2023-09-19T08:36:59;41.80;32.50
52765;DHT22;38650;44.536;18.664;2023-09-19T08:39:34;41.60;32.80
52765;DHT22;38650;44.536;18.664;2023-09-19T08:42:02;41.50;32.60
52765;DHT22;38650;44.536;18.664;2023-09-19T08:44:28;40.90;34.10
52765;DHT22;38650;44.536;18.664;2023-09-19T08:46:59;40.70;33.60
52765;DHT22;38650;44.536;18.664;2023-09-19T08:52:02;39.80;33.80
52765;DHT22;38650;44.536;18.664;2023-09-19T08:54:32;39.80;33.10
52765;DHT22;38650;44.536;18.664;2023-09-19T08:57:00;39.90;34.00
52765;DHT22;38650;44.536;18.664;2023-09-19T08:59:33;39.70;33.80
52765;DHT22;38650;44.536;18.664;2023-09-19T09:02:00;39.60;33.20
52765;DHT22;38650;44.536;18.664;2023-09-19T09:04:26;39.50;33.90
52765;DHT22;38650;44.536;18.664;2023-09-19T09:06:52;39.10;34.10
52765;DHT22;38650;44.536;18.664;2023-09-19T09:09:20;39.00;34.10
52765;DHT22;38650;44.536;18.664;2023-09-19T09:11:47;38.50;34.50
52765;DHT22;38650;44.536;18.664;2023-09-19T09:14:22;38.30;34.60
52765;DHT22;38650;44.536;18.664;2023-09-19T09:16:48;38.60;35.30
52765;DHT22;38650;44.536;18.664;2023-09-19T09:19:14;38.90;34.50
52765;DHT22;38650;44.536;18.664;2023-09-19T09:21:46;39.20;33.10
52765;DHT22;38650;44.536;18.664;2023-09-19T09:24:28;39.20;32.90
52765;DHT22;38650;44.536;18.664;2023-09-19T09:26:59;39.00;33.50
52765;DHT22;38650;44.536;18.664;2023-09-19T09:32:25;39.00;33.20
52765;DHT22;38650;44.536;18.664;2023-09-19T09:34:55;38.80;32.90
52765;DHT22;38650;44.536;18.664;2023-09-19T09:37:21;38.70;34.80
52765;DHT22;38650;44.536;18.664;2023-09-19T09:39:55;38.90;34.30
52765;DHT22;38650;44.536;18.664;2023-09-19T09:42:44;38.80;32.70
52765;DHT22;38650;44.536;18.664;2023-09-19T09:47:42;38.30;33.10
52765;DHT22;38650;44.536;18.664;2023-09-19T09:50:08;38.70;32.50
52765;DHT22;38650;44.536;18.664;2023-09-19T09:52:45;38.60;32.70
52765;DHT22;38650;44.536;18.664;2023-09-19T09:55:11;38.70;32.40
52765;DHT22;38650;44.536;18.664;2023-09-19T09:57:38;39.10;31.60
52765;DHT22;38650;44.536;18.664;2023-09-19T10:00:07;39.40;32.80
52765;DHT22;38650;44.536;18.664;2023-09-19T10:02:38;39.70;31.90
52765;DHT22;38650;44.536;18.664;2023-09-19T10:05:14;39.70;31.20
52765;DHT22;38650;44.536;18.664;2023-09-19T10:07:46;39.40;30.50
52765;DHT22;38650;44.536;18.664;2023-09-19T10:13:03;39.00;30.10
52765;DHT22;38650;44.536;18.664;2023-09-19T10:15:31;38.90;30.20
52765;DHT22;38650;44.536;18.664;2023-09-19T10:17:58;38.70;30.70
52765;DHT22;38650;44.536;18.664;2023-09-19T10:20:26;39.00;30.90
52765;DHT22;38650;44.536;18.664;2023-09-19T10:22:56;39.40;29.90
52765;DHT22;38650;44.536;18.664;2023-09-19T10:25:27;39.10;30.30
52765;DHT22;38650;44.536;18.664;2023-09-19T10:28:02;39.00;30.70
52765;DHT22;38650;44.536;18.664;2023-09-19T10:30:42;38.80;31.40
52765;DHT22;38650;44.536;18.664;2023-09-19T10:33:13;39.10;30.40
52765;DHT22;38650;44.536;18.664;2023-09-19T10:35:42;39.60;30.90
52765;DHT22;38650;44.536;18.664;2023-09-19T10:38:11;39.60;30.10
52765;DHT22;38650;44.536;18.664;2023-09-19T10:40:37;39.20;30.70
52765;DHT22;38650;44.536;18.664;2023-09-19T10:43:11;39.30;30.50
52765;DHT22;38650;44.536;18.664;2023-09-19T10:45:36;39.10;30.80
52765;DHT22;38650;44.536;18.664;2023-09-19T10:48:05;39.10;31.60
52765;DHT22;38650;44.536;18.664;2023-09-19T10:50:43;38.80;30.80
52765;DHT22;38650;44.536;18.664;2023-09-19T10:53:10;37.80;31.40
52765;DHT22;38650;44.536;18.664;2023-09-19T10:55:37;37.20;31.80
52765;DHT22;38650;44.536;18.664;2023-09-19T10:58:03;37.50;32.20
52765;DHT22;38650;44.536;18.664;2023-09-19T11:00:53;37.30;31.20
52765;DHT22;38650;44.536;18.664;2023-09-19T11:03:19;37.10;31.80
52765;DHT22;38650;44.536;18.664;2023-09-19T11:08:30;37.20;32.60
52765;DHT22;38650;44.536;18.664;2023-09-19T11:10:57;37.00;32.20
52765;DHT22;38650;44.536;18.664;2023-09-19T11:13:28;36.50;33.00
52765;DHT22;38650;44.536;18.664;2023-09-19T11:26:50;36.80;32.80
52765;DHT22;38650;44.536;18.664;2023-09-19T11:29:38;36.80;34.60
52765;DHT22;38650;44.536;18.664;2023-09-19T11:32:04;36.50;35.30
52765;DHT22;38650;44.536;18.664;2023-09-19T11:34:37;36.30;36.40
52765;DHT22;38650;44.536;18.664;2023-09-19T11:39:37;35.30;37.50
52765;DHT22;38650;44.536;18.664;2023-09-19T11:44:52;34.40;38.60
52765;DHT22;38650;44.536;18.664;2023-09-19T11:47:21;34.30;39.60
52765;DHT22;38650;44.536;18.664;2023-09-19T11:49:47;33.80;40.70
52765;DHT22;38650;44.536;18.664;2023-09-19T11:52:18;33.10;42.00
52765;DHT22;38650;44.536;18.664;2023-09-19T11:54:47;33.00;43.00
52765;DHT22;38650;44.536;18.664;2023-09-19T11:57:22;32.80;44.20
52765;DHT22;38650;44.536;18.664;2023-09-19T11:59:48;32.70;44.20
52765;DHT22;38650;44.536;18.664;2023-09-19T12:02:17;32.60;44.60
52765;DHT22;38650;44.536;18.664;2023-09-19T12:04:54;32.30;45.60
52765;DHT22;38650;44.536;18.664;2023-09-19T12:07:20;32.10;46.50
52765;DHT22;38650;44.536;18.664;2023-09-19T12:09:47;32.10;46.50
52765;DHT22;38650;44.536;18.664;2023-09-19T12:12:26;32.20;47.30
52765;DHT22;38650;44.536;18.664;2023-09-19T12:14:59;32.00;47.90
52765;DHT22;38650;44.536;18.664;2023-09-19T12:17:36;32.00;47.70
52765;DHT22;38650;44.536;18.664;2023-09-19T12:20:02;32.20;47.10
52765;DHT22;38650;44.536;18.664;2023-09-19T12:22:40;32.10;47.80
52765;DHT22;38650;44.536;18.664;2023-09-19T12:25:06;31.80;48.00
52765;DHT22;38650;44.536;18.664;2023-09-19T12:27:41;31.70;48.60
52765;DHT22;38650;44.536;18.664;2023-09-19T12:30:08;31.80;48.50
52765;DHT22;38650;44.536;18.664;2023-09-19T12:32:35;31.90;48.80
52765;DHT22;38650;44.536;18.664;2023-09-19T12:35:01;31.90;49.30
52765;DHT22;38650;44.536;18.664;2023-09-19T12:37:32;31.80;50.10
52765;DHT22;38650;44.536;18.664;2023-09-19T12:40:08;31.70;50.10
52765;DHT22;38650;44.536;18.664;2023-09-19T12:42:46;31.70;50.00
52765;DHT22;38650;44.536;18.664;2023-09-19T12:45:12;31.60;50.80
52765;DHT22;38650;44.536;18.664;2023-09-19T12:47:40;31.60;51.20
52765;DHT22;38650;44.536;18.664;2023-09-19T12:50:26;31.50;51.90
52765;DHT22;38650;44.536;18.664;2023-09-19T12:52:55;31.40;51.10
52765;DHT22;38650;44.536;18.664;2023-09-19T12:55:22;31.40;51.30
52765;DHT22;38650;44.536;18.664;2023-09-19T13:03:13;31.00;53.40
52765;DHT22;38650;44.536;18.664;2023-09-19T13:05:51;31.00;52.30
52765;DHT22;38650;44.536;18.664;2023-09-19T13:08:29;31.00;54.60
52765;DHT22;38650;44.536;18.664;2023-09-19T13:11:12;31.10;53.10
52765;DHT22;38650;44.536;18.664;2023-09-19T13:13:51;31.40;52.00
52765;DHT22;38650;44.536;18.664;2023-09-19T13:16:20;31.40;51.60
52765;DHT22;38650;44.536;18.664;2023-09-19T13:18:54;31.60;51.30
52765;DHT22;38650;44.536;18.664;2023-09-19T13:21:32;31.70;50.60
52765;DHT22;38650;44.536;18.664;2023-09-19T13:24:23;31.70;50.20
52765;DHT22;38650;44.536;18.664;2023-09-19T13:26:51;32.40;51.00
52765;DHT22;38650;44.536;18.664;2023-09-19T13:29:19;33.10;48.70
52765;DHT22;38650;44.536;18.664;2023-09-19T13:31:45;33.50;47.50
52765;DHT22;38650;44.536;18.664;2023-09-19T13:34:11;33.70;46.90
52765;DHT22;38650;44.536;18.664;2023-09-19T13:36:36;34.00;47.00
52765;DHT22;38650;44.536;18.664;2023-09-19T13:39:02;34.30;47.10
52765;DHT22;38650;44.536;18.664;2023-09-19T13:41:30;34.70;45.60
52765;DHT22;38650;44.536;18.664;2023-09-19T13:43:57;34.70;44.00
52765;DHT22;38650;44.536;18.664;2023-09-19T13:46:23;34.70;43.70
52765;DHT22;38650;44.536;18.664;2023-09-19T13:48:51;34.50;45.20
52765;DHT22;38650;44.536;18.664;2023-09-19T13:51:20;34.80;45.40
52765;DHT22;38650;44.536;18.664;2023-09-19T13:53:48;35.10;44.80
52765;DHT22;38650;44.536;18.664;2023-09-19T13:56:14;35.10;43.40
52765;DHT22;38650;44.536;18.664;2023-09-19T13:58:39;35.10;43.20
52765;DHT22;38650;44.536;18.664;2023-09-19T14:01:07;35.20;43.80
52765;DHT22;38650;44.536;18.664;2023-09-19T14:03:37;35.10;42.90
52765;DHT22;38650;44.536;18.664;2023-09-19T14:06:03;34.50;43.70
52765;DHT22;38650;44.536;18.664;2023-09-19T14:08:29;33.90;44.80
52765;DHT22;38650;44.536;18.664;2023-09-19T14:10:55;33.30;45.80
52765;DHT22;38650;44.536;18.664;2023-09-19T14:13:21;32.70;46.80
52765;DHT22;38650;44.536;18.664;2023-09-19T14:15:46;32.30;47.30
52765;DHT22;38650;44.536;18.664;2023-09-19T14:18:12;32.10;48.20
52765;DHT22;38650;44.536;18.664;2023-09-19T14:20:38;31.80;49.20
52765;DHT22;38650;44.536;18.664;2023-09-19T14:23:04;31.30;51.60
52765;DHT22;38650;44.536;18.664;2023-09-19T14:25:30;30.70;53.70
52765;DHT22;38650;44.536;18.664;2023-09-19T14:27:55;30.50;54.30
52765;DHT22;38650;44.536;18.664;2023-09-19T14:30:21;30.60;54.70
52765;DHT22;38650;44.536;18.664;2023-09-19T14:32:47;30.40;55.30
52765;DHT22;38650;44.536;18.664;2023-09-19T14:35:12;30.60;55.20
52765;DHT22;38650;44.536;18.664;2023-09-19T14:37:39;30.70;55.40
52765;DHT22;38650;44.536;18.664;2023-09-19T14:40:05;30.20;56.10
52765;DHT22;38650;44.536;18.664;2023-09-19T14:42:38;30.20;56.60
52765;DHT22;38650;44.536;18.664;2023-09-19T14:45:04;29.80;57.70
52765;DHT22;38650;44.536;18.664;2023-09-19T14:47:30;29.60;58.50
52765;DHT22;38650;44.536;18.664;2023-09-19T14:49:57;29.40;59.70
52765;DHT22;38650;44.536;18.664;2023-09-19T14:52:23;29.30;60.00
52765;DHT22;38650;44.536;18.664;2023-09-19T14:54:51;29.40;59.80
52765;DHT22;38650;44.536;18.664;2023-09-19T14:57:16;29.40;60.10
52765;DHT22;38650;44.536;18.664;2023-09-19T14:59:42;29.10;61.30
52765;DHT22;38650;44.536;18.664;2023-09-19T15:02:08;29.10;61.40
52765;DHT22;38650;44.536;18.664;2023-09-19T15:04:33;29.20;61.70
52765;DHT22;38650;44.536;18.664;2023-09-19T15:06:59;29.30;60.90
52765;DHT22;38650;44.536;18.664;2023-09-19T15:09:25;29.40;61.50
52765;DHT22;38650;44.536;18.664;2023-09-19T15:11:54;29.50;60.40
52765;DHT22;38650;44.536;18.664;2023-09-19T15:14:19;29.60;61.90
52765;DHT22;38650;44.536;18.664;2023-09-19T15:16:46;29.60;60.90
52765;DHT22;38650;44.536;18.664;2023-09-19T15:19:12;29.70;59.80
52765;DHT22;38650;44.536;18.664;2023-09-19T15:21:37;29.80;60.20
52765;DHT22;38650;44.536;18.664;2023-09-19T15:24:03;29.70;60.50
52765;DHT22;38650;44.536;18.664;2023-09-19T15:26:28;29.80;60.90
52765;DHT22;38650;44.536;18.664;2023-09-19T15:28:55;29.80;61.30
52765;DHT22;38650;44.536;18.664;2023-09-19T15:31:21;30.00;61.40
52765;DHT22;38650;44.536;18.664;2023-09-19T15:33:46;30.00;61.70
52765;DHT22;38650;44.536;18.664;2023-09-19T15:36:12;30.00;60.00
52765;DHT22;38650;44.536;18.664;2023-09-19T15:41:23;30.20;59.30
52765;DHT22;38650;44.536;18.664;2023-09-19T15:43:49;30.20;58.30
52765;DHT22;38650;44.536;18.664;2023-09-19T15:46:15;30.10;57.40
52765;DHT22;38650;44.536;18.664;2023-09-19T15:48:41;30.00;54.90
52765;DHT22;38650;44.536;18.664;2023-09-19T15:51:06;30.00;55.50
52765;DHT22;38650;44.536;18.664;2023-09-19T15:53:45;30.00;52.80
52765;DHT22;38650;44.536;18.664;2023-09-19T15:56:11;29.90;52.50
52765;DHT22;38650;44.536;18.664;2023-09-19T15:58:37;30.00;52.20
52765;DHT22;38650;44.536;18.664;2023-09-19T16:01:08;30.00;52.20
52765;DHT22;38650;44.536;18.664;2023-09-19T16:03:37;29.90;52.10
52765;DHT22;38650;44.536;18.664;2023-09-19T16:06:13;30.00;52.70
52765;DHT22;38650;44.536;18.664;2023-09-19T16:08:45;29.90;57.60
52765;DHT22;38650;44.536;18.664;2023-09-19T16:11:11;29.40;60.50
52765;DHT22;38650;44.536;18.664;2023-09-19T16:13:37;29.10;62.00
52765;DHT22;38650;44.536;18.664;2023-09-19T16:16:03;28.80;64.40
52765;DHT22;38650;44.536;18.664;2023-09-19T16:18:29;28.30;65.60